sensor_id;sensor_type;location;lat;lon;timestamp;P1;durP1;ratioP1;P2;durP2;ratioP2
59607;SDS011;45426;44.726;10.390;2023-08-20T00:00:12;16.40;;;10.98;;
59607;SDS011;45426;44.726;10.390;2023-08-20T00:02:41;16.17;;;10.98;;
59607;SDS011;45426;44.726;10.390;2023-08-20T00:05:07;16.42;;;11.02;;
59607;SDS011;45426;44.726;10.390;2023-08-20T00:07:34;15.68;;;10.68;;
59607;SDS011;45426;44.726;10.390;2023-08-20T00:10:00;17.35;;;11.18;;
59607;SDS011;45426;44.726;10.390;2023-08-20T00:12:25;18.85;;;12.13;;
59607;SDS011;45426;44.726;10.390;2023-08-20T00:14:57;16.45;;;11.68;;
59607;SDS011;45426;44.726;10.390;2023-08-20T00:17:29;17.75;;;12.63;;
59607;SDS011;45426;44.726;10.390;2023-08-20T00:19:55;20.80;;;13.38;;
59607;SDS011;45426;44.726;10.390;2023-08-20T00:22:21;18.77;;;13.30;;
59607;SDS011;45426;44.726;10.390;2023-08-20T00:24:49;18.38;;;12.63;;
59607;SDS011;45426;44.726;10.390;2023-08-20T00:27:16;18.90;;;13.43;;
59607;SDS011;45426;44.726;10.390;2023-08-20T00:29:42;20.13;;;12.88;;
59607;SDS011;45426;44.726;10.390;2023-08-20T00:32:07;21.85;;;12.95;;
59607;SDS011;45426;44.726;10.390;2023-08-20T00:34:33;19.77;;;13.48;;
59607;SDS011;45426;44.726;10.390;2023-08-20T00:36:58;18.60;;;12.23;;
59607;SDS011;45426;44.726;10.390;2023-08-20T00:39:24;19.75;;;12.77;;
59607;SDS011;45426;44.726;10.390;2023-08-20T00:41:49;19.05;;;12.52;;
59607;SDS011;45426;44.726;10.390;2023-08-20T00:44:14;17.98;;;12.38;;
59607;SDS011;45426;44.726;10.390;2023-08-20T00:46:40;20.08;;;12.45;;
59607;SDS011;45426;44.726;10.390;2023-08-20T00:49:05;19.08;;;11.95;;
59607;SDS011;45426;44.726;10.390;2023-08-20T00:51:34;18.13;;;12.18;;
59607;SDS011;45426;44.726;10.390;2023-08-20T00:54:01;17.35;;;12.30;;
59607;SDS011;45426;44.726;10.390;2023-08-20T00:56:28;19.08;;;12.68;;
59607;SDS011;45426;44.726;10.390;2023-08-20T00:58:54;17.58;;;12.35;;
59607;SDS011;45426;44.726;10.390;2023-08-20T01:01:20;17.38;;;12.52;;
59607;SDS011;45426;44.726;10.390;2023-08-20T01:03:47;19.17;;;12.68;;
59607;SDS011;45426;44.726;10.390;2023-08-20T01:09:43;18.17;;;12.35;;
59607;SDS011;45426;44.726;10.390;2023-08-20T01:12:12;16.25;;;12.02;;
59607;SDS011;45426;44.726;10.390;2023-08-20T01:14:38;19.55;;;12.38;;
59607;SDS011;45426;44.726;10.390;2023-08-20T01:17:04;19.50;;;12.00;;
59607;SDS011;45426;44.726;10.390;2023-08-20T01:19:30;20.50;;;12.55;;
59607;SDS011;45426;44.726;10.390;2023-08-20T01:22:15;18.60;;;12.30;;
59607;SDS011;45426;44.726;10.390;2023-08-20T01:24:54;18.40;;;12.13;;
59607;SDS011;45426;44.726;10.390;2023-08-20T01:30:15;17.02;;;12.25;;
59607;SDS011;45426;44.726;10.390;2023-08-20T01:32:42;18.40;;;12.48;;
59607;SDS011;45426;44.726;10.390;2023-08-20T01:35:12;15.85;;;12.25;;
59607;SDS011;45426;44.726;10.390;2023-08-20T01:37:41;19.20;;;12.15;;
59607;SDS011;45426;44.726;10.390;2023-08-20T01:40:10;19.25;;;12.55;;
59607;SDS011;45426;44.726;10.390;2023-08-20T01:42:39;19.27;;;12.40;;
59607;SDS011;45426;44.726;10.390;2023-08-20T01:45:05;19.50;;;12.30;;
59607;SDS011;45426;44.726;10.390;2023-08-20T01:47:32;20.05;;;13.13;;
59607;SDS011;45426;44.726;10.390;2023-08-20T01:49:58;18.73;;;12.35;;
59607;SDS011;45426;44.726;10.390;2023-08-20T01:52:24;20.83;;;12.43;;
59607;SDS011;45426;44.726;10.390;2023-08-20T01:54:50;19.67;;;13.50;;
59607;SDS011;45426;44.726;10.390;2023-08-20T01:57:16;20.02;;;12.70;;
59607;SDS011;45426;44.726;10.390;2023-08-20T01:59:42;17.48;;;13.10;;
59607;SDS011;45426;44.726;10.390;2023-08-20T02:02:07;19.23;;;13.93;;
59607;SDS011;45426;44.726;10.390;2023-08-20T02:04:33;23.65;;;12.10;;
59607;SDS011;45426;44.726;10.390;2023-08-20T02:06:59;17.65;;;12.93;;
59607;SDS011;45426;44.726;10.390;2023-08-20T02:09:24;19.30;;;12.23;;
59607;SDS011;45426;44.726;10.390;2023-08-20T02:11:50;19.33;;;12.55;;
59607;SDS011;45426;44.726;10.390;2023-08-20T02:14:16;20.15;;;12.60;;
59607;SDS011;45426;44.726;10.390;2023-08-20T02:16:41;17.23;;;12.35;;
59607;SDS011;45426;44.726;10.390;2023-08-20T02:19:07;18.17;;;11.65;;
59607;SDS011;45426;44.726;10.390;2023-08-20T02:21:33;18.50;;;12.05;;
59607;SDS011;45426;44.726;10.390;2023-08-20T02:23:58;16.88;;;12.23;;
59607;SDS011;45426;44.726;10.390;2023-08-20T02:26:23;18.60;;;12.98;;
59607;SDS011;45426;44.726;10.390;2023-08-20T02:28:49;20.50;;;13.60;;
59607;SDS011;45426;44.726;10.390;2023-08-20T02:31:14;20.85;;;14.55;;
59607;SDS011;45426;44.726;10.390;2023-08-20T02:33:40;19.10;;;13.30;;
59607;SDS011;45426;44.726;10.390;2023-08-20T02:36:06;20.20;;;14.35;;
59607;SDS011;45426;44.726;10.390;2023-08-20T02:38:31;20.75;;;14.02;;
59607;SDS011;45426;44.726;10.390;2023-08-20T02:40:57;22.50;;;13.88;;
59607;SDS011;45426;44.726;10.390;2023-08-20T02:43:22;21.42;;;13.32;;
59607;SDS011;45426;44.726;10.390;2023-08-20T02:45:48;21.17;;;13.40;;
59607;SDS011;45426;44.726;10.390;2023-08-20T02:48:14;19.67;;;12.95;;
59607;SDS011;45426;44.726;10.390;2023-08-20T02:50:39;20.63;;;12.90;;
59607;SDS011;45426;44.726;10.390;2023-08-20T02:53:05;17.45;;;12.63;;
59607;SDS011;45426;44.726;10.390;2023-08-20T02:55:31;20.48;;;13.02;;
59607;SDS011;45426;44.726;10.390;2023-08-20T02:57:58;22.35;;;12.88;;
59607;SDS011;45426;44.726;10.390;2023-08-20T03:00:23;20.52;;;12.55;;
59607;SDS011;45426;44.726;10.390;2023-08-20T03:02:49;19.75;;;12.50;;
59607;SDS011;45426;44.726;10.390;2023-08-20T03:05:14;17.42;;;12.82;;
59607;SDS011;45426;44.726;10.390;2023-08-20T03:07:39;18.17;;;13.15;;
59607;SDS011;45426;44.726;10.390;2023-08-20T03:10:05;20.80;;;11.98;;
59607;SDS011;45426;44.726;10.390;2023-08-20T03:12:31;18.33;;;12.52;;
59607;SDS011;45426;44.726;10.390;2023-08-20T03:14:57;17.98;;;13.07;;
59607;SDS011;45426;44.726;10.390;2023-08-20T03:17:23;20.58;;;13.00;;
59607;SDS011;45426;44.726;10.390;2023-08-20T03:19:55;19.58;;;13.75;;
59607;SDS011;45426;44.726;10.390;2023-08-20T03:22:21;21.58;;;14.10;;
59607;SDS011;45426;44.726;10.390;2023-08-20T03:24:47;20.25;;;13.93;;
59607;SDS011;45426;44.726;10.390;2023-08-20T03:27:13;21.48;;;13.40;;
59607;SDS011;45426;44.726;10.390;2023-08-20T03:29:38;20.15;;;13.48;;
59607;SDS011;45426;44.726;10.390;2023-08-20T03:32:04;24.67;;;14.07;;
59607;SDS011;45426;44.726;10.390;2023-08-20T03:34:29;20.42;;;14.07;;
59607;SDS011;45426;44.726;10.390;2023-08-20T03:36:54;23.33;;;14.70;;
59607;SDS011;45426;44.726;10.390;2023-08-20T03:39:20;22.65;;;15.05;;
59607;SDS011;45426;44.726;10.390;2023-08-20T03:41:46;19.65;;;14.20;;
59607;SDS011;45426;44.726;10.390;2023-08-20T03:44:11;21.92;;;14.60;;
59607;SDS011;45426;44.726;10.390;2023-08-20T03:46:36;19.92;;;14.32;;
59607;SDS011;45426;44.726;10.390;2023-08-20T03:49:02;22.60;;;13.75;;
59607;SDS011;45426;44.726;10.390;2023-08-20T03:51:27;19.92;;;13.95;;
59607;SDS011;45426;44.726;10.390;2023-08-20T03:53:53;20.00;;;14.40;;
59607;SDS011;45426;44.726;10.390;2023-08-20T03:56:18;22.88;;;14.48;;
59607;SDS011;45426;44.726;10.390;2023-08-20T03:58:44;20.42;;;14.05;;
59607;SDS011;45426;44.726;10.390;2023-08-20T04:01:10;19.90;;;13.10;;
59607;SDS011;45426;44.726;10.390;2023-08-20T04:03:35;21.17;;;14.38;;
59607;SDS011;45426;44.726;10.390;2023-08-20T04:06:01;19.45;;;13.63;;
59607;SDS011;45426;44.726;10.390;2023-08-20T04:08:26;20.73;;;14.30;;
59607;SDS011;45426;44.726;10.390;2023-08-20T04:10:52;21.00;;;15.10;;
59607;SDS011;45426;44.726;10.390;2023-08-20T04:13:17;21.20;;;14.80;;
59607;SDS011;45426;44.726;10.390;2023-08-20T04:15:43;24.55;;;15.25;;
59607;SDS011;45426;44.726;10.390;2023-08-20T04:18:09;21.83;;;14.50;;
59607;SDS011;45426;44.726;10.390;2023-08-20T04:20:34;21.58;;;14.90;;
59607;SDS011;45426;44.726;10.390;2023-08-20T04:23:00;20.10;;;13.88;;
59607;SDS011;45426;44.726;10.390;2023-08-20T04:25:25;19.95;;;13.65;;
59607;SDS011;45426;44.726;10.390;2023-08-20T04:27:52;20.85;;;14.45;;
59607;SDS011;45426;44.726;10.390;2023-08-20T04:30:17;24.63;;;14.73;;
59607;SDS011;45426;44.726;10.390;2023-08-20T04:32:43;20.98;;;14.20;;
59607;SDS011;45426;44.726;10.390;2023-08-20T04:35:08;20.40;;;14.02;;
59607;SDS011;45426;44.726;10.390;2023-08-20T04:37:35;19.00;;;13.63;;
59607;SDS011;45426;44.726;10.390;2023-08-20T04:40:00;25.02;;;14.85;;
59607;SDS011;45426;44.726;10.390;2023-08-20T04:42:26;20.73;;;14.05;;
59607;SDS011;45426;44.726;10.390;2023-08-20T04:44:52;23.08;;;15.00;;
59607;SDS011;45426;44.726;10.390;2023-08-20T04:47:18;21.42;;;14.82;;
59607;SDS011;45426;44.726;10.390;2023-08-20T04:49:43;20.63;;;14.88;;
59607;SDS011;45426;44.726;10.390;2023-08-20T04:52:09;24.35;;;14.77;;
59607;SDS011;45426;44.726;10.390;2023-08-20T04:54:34;22.77;;;14.13;;
59607;SDS011;45426;44.726;10.390;2023-08-20T04:57:00;20.45;;;14.73;;
59607;SDS011;45426;44.726;10.390;2023-08-20T04:59:25;23.95;;;14.10;;
59607;SDS011;45426;44.726;10.390;2023-08-20T05:01:51;20.58;;;13.80;;
59607;SDS011;45426;44.726;10.390;2023-08-20T05:04:16;19.08;;;14.38;;
59607;SDS011;45426;44.726;10.390;2023-08-20T05:06:42;22.83;;;15.00;;
59607;SDS011;45426;44.726;10.390;2023-08-20T05:09:07;21.92;;;14.82;;
59607;SDS011;45426;44.726;10.390;2023-08-20T05:11:32;21.70;;;14.77;;
59607;SDS011;45426;44.726;10.390;2023-08-20T05:13:59;21.30;;;13.73;;
59607;SDS011;45426;44.726;10.390;2023-08-20T05:16:25;24.27;;;15.00;;
59607;SDS011;45426;44.726;10.390;2023-08-20T05:18:50;22.70;;;14.80;;
59607;SDS011;45426;44.726;10.390;2023-08-20T05:21:16;22.30;;;14.60;;
59607;SDS011;45426;44.726;10.390;2023-08-20T05:23:41;21.13;;;14.60;;
59607;SDS011;45426;44.726;10.390;2023-08-20T05:26:07;21.23;;;15.10;;
59607;SDS011;45426;44.726;10.390;2023-08-20T05:28:33;21.25;;;14.38;;
59607;SDS011;45426;44.726;10.390;2023-08-20T05:30:59;20.63;;;14.30;;
59607;SDS011;45426;44.726;10.390;2023-08-20T05:33:25;22.20;;;14.35;;
59607;SDS011;45426;44.726;10.390;2023-08-20T05:35:51;20.48;;;13.63;;
59607;SDS011;45426;44.726;10.390;2023-08-20T05:38:16;19.02;;;12.50;;
59607;SDS011;45426;44.726;10.390;2023-08-20T05:40:42;20.60;;;12.80;;
59607;SDS011;45426;44.726;10.390;2023-08-20T05:43:07;19.27;;;13.50;;
59607;SDS011;45426;44.726;10.390;2023-08-20T05:45:33;22.95;;;13.27;;
59607;SDS011;45426;44.726;10.390;2023-08-20T05:47:58;20.77;;;13.55;;
59607;SDS011;45426;44.726;10.390;2023-08-20T05:50:24;22.40;;;13.35;;
59607;SDS011;45426;44.726;10.390;2023-08-20T05:52:49;21.63;;;13.82;;
59607;SDS011;45426;44.726;10.390;2023-08-20T05:55:15;20.17;;;13.57;;
59607;SDS011;45426;44.726;10.390;2023-08-20T05:57:40;25.65;;;14.25;;
59607;SDS011;45426;44.726;10.390;2023-08-20T06:00:08;20.65;;;14.07;;
59607;SDS011;45426;44.726;10.390;2023-08-20T06:02:34;19.55;;;14.07;;
59607;SDS011;45426;44.726;10.390;2023-08-20T06:04:59;20.77;;;14.50;;
59607;SDS011;45426;44.726;10.390;2023-08-20T06:07:24;21.98;;;14.02;;
59607;SDS011;45426;44.726;10.390;2023-08-20T06:09:50;23.20;;;14.00;;
59607;SDS011;45426;44.726;10.390;2023-08-20T06:12:16;21.92;;;14.57;;
59607;SDS011;45426;44.726;10.390;2023-08-20T06:14:42;22.25;;;15.18;;
59607;SDS011;45426;44.726;10.390;2023-08-20T06:17:07;21.40;;;15.73;;
59607;SDS011;45426;44.726;10.390;2023-08-20T06:19:33;22.38;;;15.18;;
59607;SDS011;45426;44.726;10.390;2023-08-20T06:21:58;30.10;;;15.10;;
59607;SDS011;45426;44.726;10.390;2023-08-20T06:24:24;29.10;;;15.32;;
59607;SDS011;45426;44.726;10.390;2023-08-20T06:26:50;27.42;;;16.20;;
59607;SDS011;45426;44.726;10.390;2023-08-20T06:29:16;26.20;;;14.43;;
59607;SDS011;45426;44.726;10.390;2023-08-20T06:31:42;25.75;;;15.75;;
59607;SDS011;45426;44.726;10.390;2023-08-20T06:34:07;24.27;;;14.52;;
59607;SDS011;45426;44.726;10.390;2023-08-20T06:36:32;24.00;;;14.73;;
59607;SDS011;45426;44.726;10.390;2023-08-20T06:38:58;23.63;;;15.57;;
59607;SDS011;45426;44.726;10.390;2023-08-20T06:41:23;24.60;;;16.00;;
59607;SDS011;45426;44.726;10.390;2023-08-20T06:43:49;22.73;;;15.23;;
59607;SDS011;45426;44.726;10.390;2023-08-20T06:46:14;27.58;;;15.65;;
59607;SDS011;45426;44.726;10.390;2023-08-20T06:48:40;23.58;;;16.30;;
59607;SDS011;45426;44.726;10.390;2023-08-20T06:51:14;24.17;;;16.55;;
59607;SDS011;45426;44.726;10.390;2023-08-20T06:53:43;25.75;;;16.42;;
59607;SDS011;45426;44.726;10.390;2023-08-20T06:56:08;24.63;;;16.60;;
59607;SDS011;45426;44.726;10.390;2023-08-20T06:58:38;23.88;;;16.35;;
59607;SDS011;45426;44.726;10.390;2023-08-20T07:01:04;25.20;;;15.05;;
59607;SDS011;45426;44.726;10.390;2023-08-20T07:03:33;27.33;;;15.38;;
59607;SDS011;45426;44.726;10.390;2023-08-20T07:06:00;19.83;;;13.98;;
59607;SDS011;45426;44.726;10.390;2023-08-20T07:08:25;20.75;;;13.20;;
59607;SDS011;45426;44.726;10.390;2023-08-20T07:10:51;19.30;;;12.10;;
59607;SDS011;45426;44.726;10.390;2023-08-20T07:13:16;19.90;;;12.68;;
59607;SDS011;45426;44.726;10.390;2023-08-20T07:15:41;15.57;;;11.23;;
59607;SDS011;45426;44.726;10.390;2023-08-20T07:18:07;15.68;;;10.70;;
59607;SDS011;45426;44.726;10.390;2023-08-20T07:20:32;15.85;;;11.23;;
59607;SDS011;45426;44.726;10.390;2023-08-20T07:22:58;14.05;;;10.23;;
59607;SDS011;45426;44.726;10.390;2023-08-20T07:25:23;13.88;;;9.70;;
59607;SDS011;45426;44.726;10.390;2023-08-20T07:27:48;12.55;;;9.70;;
59607;SDS011;45426;44.726;10.390;2023-08-20T07:30:15;14.30;;;9.75;;
59607;SDS011;45426;44.726;10.390;2023-08-20T07:32:41;14.52;;;9.82;;
59607;SDS011;45426;44.726;10.390;2023-08-20T07:35:06;11.73;;;8.73;;
59607;SDS011;45426;44.726;10.390;2023-08-20T07:37:33;13.63;;;9.27;;
59607;SDS011;45426;44.726;10.390;2023-08-20T07:39:58;13.30;;;9.05;;
59607;SDS011;45426;44.726;10.390;2023-08-20T07:42:24;15.13;;;9.32;;
59607;SDS011;45426;44.726;10.390;2023-08-20T07:44:49;14.82;;;9.80;;
59607;SDS011;45426;44.726;10.390;2023-08-20T07:47:15;18.00;;;9.90;;
59607;SDS011;45426;44.726;10.390;2023-08-20T07:49:40;13.43;;;9.80;;
59607;SDS011;45426;44.726;10.390;2023-08-20T07:52:05;14.73;;;8.75;;
59607;SDS011;45426;44.726;10.390;2023-08-20T07:54:31;13.52;;;9.07;;
59607;SDS011;45426;44.726;10.390;2023-08-20T07:56:56;14.05;;;9.10;;
59607;SDS011;45426;44.726;10.390;2023-08-20T07:59:22;13.77;;;9.48;;
59607;SDS011;45426;44.726;10.390;2023-08-20T08:01:47;13.40;;;8.50;;
59607;SDS011;45426;44.726;10.390;2023-08-20T08:04:14;12.82;;;8.55;;
59607;SDS011;45426;44.726;10.390;2023-08-20T08:06:40;13.27;;;8.10;;
59607;SDS011;45426;44.726;10.390;2023-08-20T08:09:17;11.05;;;7.50;;
59607;SDS011;45426;44.726;10.390;2023-08-20T08:12:01;12.77;;;8.60;;
59607;SDS011;45426;44.726;10.390;2023-08-20T08:14:27;12.38;;;8.18;;
59607;SDS011;45426;44.726;10.390;2023-08-20T08:16:53;13.32;;;8.52;;
59607;SDS011;45426;44.726;10.390;2023-08-20T08:19:19;11.10;;;6.93;;
59607;SDS011;45426;44.726;10.390;2023-08-20T08:21:45;11.55;;;7.10;;
59607;SDS011;45426;44.726;10.390;2023-08-20T08:24:11;10.77;;;7.00;;
59607;SDS011;45426;44.726;10.390;2023-08-20T08:26:38;12.15;;;7.70;;
59607;SDS011;45426;44.726;10.390;2023-08-20T08:29:04;10.20;;;7.40;;
59607;SDS011;45426;44.726;10.390;2023-08-20T08:31:31;10.27;;;7.18;;
59607;SDS011;45426;44.726;10.390;2023-08-20T08:33:57;10.27;;;7.05;;
59607;SDS011;45426;44.726;10.390;2023-08-20T08:36:22;13.07;;;7.30;;
59607;SDS011;45426;44.726;10.390;2023-08-20T08:38:50;11.70;;;6.60;;
59607;SDS011;45426;44.726;10.390;2023-08-20T08:41:16;9.60;;;6.80;;
59607;SDS011;45426;44.726;10.390;2023-08-20T08:43:42;10.35;;;6.30;;
59607;SDS011;45426;44.726;10.390;2023-08-20T08:46:08;11.43;;;6.40;;
59607;SDS011;45426;44.726;10.390;2023-08-20T08:48:39;11.65;;;7.22;;
59607;SDS011;45426;44.726;10.390;2023-08-20T08:51:06;11.18;;;6.57;;
59607;SDS011;45426;44.726;10.390;2023-08-20T08:53:32;9.18;;;6.35;;
59607;SDS011;45426;44.726;10.390;2023-08-20T08:55:58;11.95;;;6.72;;
59607;SDS011;45426;44.726;10.390;2023-08-20T08:58:24;11.20;;;7.00;;
59607;SDS011;45426;44.726;10.390;2023-08-20T09:00:50;11.45;;;7.10;;
59607;SDS011;45426;44.726;10.390;2023-08-20T09:03:15;10.75;;;6.60;;
59607;SDS011;45426;44.726;10.390;2023-08-20T09:05:47;10.13;;;6.88;;
59607;SDS011;45426;44.726;10.390;2023-08-20T09:08:20;11.38;;;6.90;;
59607;SDS011;45426;44.726;10.390;2023-08-20T09:10:49;11.60;;;6.60;;
59607;SDS011;45426;44.726;10.390;2023-08-20T09:13:15;10.77;;;6.90;;
59607;SDS011;45426;44.726;10.390;2023-08-20T09:15:41;12.35;;;7.30;;
59607;SDS011;45426;44.726;10.390;2023-08-20T09:18:09;10.65;;;7.10;;
59607;SDS011;45426;44.726;10.390;2023-08-20T09:20:38;13.38;;;6.95;;
59607;SDS011;45426;44.726;10.390;2023-08-20T09:23:04;10.68;;;6.25;;
59607;SDS011;45426;44.726;10.390;2023-08-20T09:25:35;9.82;;;6.85;;
59607;SDS011;45426;44.726;10.390;2023-08-20T09:28:04;12.35;;;7.43;;
59607;SDS011;45426;44.726;10.390;2023-08-20T09:30:29;9.23;;;6.60;;
59607;SDS011;45426;44.726;10.390;2023-08-20T09:33:07;11.80;;;7.07;;
59607;SDS011;45426;44.726;10.390;2023-08-20T09:35:35;9.10;;;6.53;;
59607;SDS011;45426;44.726;10.390;2023-08-20T09:38:02;11.88;;;7.00;;
59607;SDS011;45426;44.726;10.390;2023-08-20T09:40:28;12.75;;;7.13;;
59607;SDS011;45426;44.726;10.390;2023-08-20T09:42:54;9.52;;;6.78;;
59607;SDS011;45426;44.726;10.390;2023-08-20T09:45:21;9.85;;;6.88;;
59607;SDS011;45426;44.726;10.390;2023-08-20T09:47:49;9.90;;;6.78;;
59607;SDS011;45426;44.726;10.390;2023-08-20T09:50:17;12.18;;;6.55;;
59607;SDS011;45426;44.726;10.390;2023-08-20T09:53:26;8.77;;;6.43;;
59607;SDS011;45426;44.726;10.390;2023-08-20T09:55:38;11.45;;;6.97;;
59607;SDS011;45426;44.726;10.390;2023-08-20T09:58:06;11.02;;;7.20;;
59607;SDS011;45426;44.726;10.390;2023-08-20T10:00:32;12.02;;;6.60;;
59607;SDS011;45426;44.726;10.390;2023-08-20T10:02:58;10.40;;;6.82;;
59607;SDS011;45426;44.726;10.390;2023-08-20T10:05:23;12.02;;;7.05;;
59607;SDS011;45426;44.726;10.390;2023-08-20T10:07:50;10.65;;;6.60;;
59607;SDS011;45426;44.726;10.390;2023-08-20T10:10:17;10.52;;;6.63;;
59607;SDS011;45426;44.726;10.390;2023-08-20T10:12:43;9.98;;;6.65;;
59607;SDS011;45426;44.726;10.390;2023-08-20T10:15:10;13.27;;;7.55;;
59607;SDS011;45426;44.726;10.390;2023-08-20T10:17:38;10.23;;;6.70;;
59607;SDS011;45426;44.726;10.390;2023-08-20T10:20:06;10.27;;;7.10;;
59607;SDS011;45426;44.726;10.390;2023-08-20T10:22:42;11.50;;;6.88;;
59607;SDS011;45426;44.726;10.390;2023-08-20T10:25:21;10.77;;;7.03;;
59607;SDS011;45426;44.726;10.390;2023-08-20T10:27:48;10.30;;;7.07;;
59607;SDS011;45426;44.726;10.390;2023-08-20T10:30:17;9.95;;;6.60;;
59607;SDS011;45426;44.726;10.390;2023-08-20T10:35:17;11.02;;;6.65;;
59607;SDS011;45426;44.726;10.390;2023-08-20T10:48:42;9.98;;;6.50;;
59607;SDS011;45426;44.726;10.390;2023-08-20T10:51:19;11.10;;;6.28;;
59607;SDS011;45426;44.726;10.390;2023-08-20T11:01:50;8.82;;;6.30;;
59607;SDS011;45426;44.726;10.390;2023-08-20T11:04:18;10.30;;;6.15;;
59607;SDS011;45426;44.726;10.390;2023-08-20T11:06:45;10.07;;;6.75;;
59607;SDS011;45426;44.726;10.390;2023-08-20T11:09:12;9.55;;;6.70;;
59607;SDS011;45426;44.726;10.390;2023-08-20T11:11:38;11.02;;;6.80;;
59607;SDS011;45426;44.726;10.390;2023-08-20T11:14:06;8.88;;;6.32;;
59607;SDS011;45426;44.726;10.390;2023-08-20T11:16:34;10.27;;;6.00;;
59607;SDS011;45426;44.726;10.390;2023-08-20T11:19:00;8.98;;;6.35;;
59607;SDS011;45426;44.726;10.390;2023-08-20T11:21:27;12.23;;;6.10;;
59607;SDS011;45426;44.726;10.390;2023-08-20T11:23:54;8.35;;;6.10;;
59607;SDS011;45426;44.726;10.390;2023-08-20T11:26:20;11.27;;;7.00;;
59607;SDS011;45426;44.726;10.390;2023-08-20T11:28:45;10.05;;;6.88;;
59607;SDS011;45426;44.726;10.390;2023-08-20T11:31:11;9.75;;;6.65;;
59607;SDS011;45426;44.726;10.390;2023-08-20T11:33:37;10.30;;;7.22;;
59607;SDS011;45426;44.726;10.390;2023-08-20T11:36:03;9.07;;;6.82;;
59607;SDS011;45426;44.726;10.390;2023-08-20T11:38:30;9.13;;;6.68;;
59607;SDS011;45426;44.726;10.390;2023-08-20T11:40:57;9.45;;;6.82;;
59607;SDS011;45426;44.726;10.390;2023-08-20T11:43:24;10.48;;;6.38;;
59607;SDS011;45426;44.726;10.390;2023-08-20T11:45:51;9.45;;;5.90;;
59607;SDS011;45426;44.726;10.390;2023-08-20T11:48:17;9.15;;;6.20;;
59607;SDS011;45426;44.726;10.390;2023-08-20T11:50:44;8.52;;;6.03;;
59607;SDS011;45426;44.726;10.390;2023-08-20T11:53:10;9.43;;;6.22;;
59607;SDS011;45426;44.726;10.390;2023-08-20T11:55:37;8.85;;;6.03;;
59607;SDS011;45426;44.726;10.390;2023-08-20T11:58:03;8.13;;;6.10;;
59607;SDS011;45426;44.726;10.390;2023-08-20T12:00:30;8.70;;;6.13;;
59607;SDS011;45426;44.726;10.390;2023-08-20T12:02:57;9.93;;;6.40;;
59607;SDS011;45426;44.726;10.390;2023-08-20T12:05:26;10.45;;;6.40;;
59607;SDS011;45426;44.726;10.390;2023-08-20T12:07:58;8.93;;;6.32;;
59607;SDS011;45426;44.726;10.390;2023-08-20T12:10:25;13.35;;;5.93;;
59607;SDS011;45426;44.726;10.390;2023-08-20T12:12:52;8.65;;;5.85;;
59607;SDS011;45426;44.726;10.390;2023-08-20T12:15:18;9.50;;;6.30;;
59607;SDS011;45426;44.726;10.390;2023-08-20T12:17:54;9.32;;;6.20;;
59607;SDS011;45426;44.726;10.390;2023-08-20T12:20:26;9.10;;;6.07;;
59607;SDS011;45426;44.726;10.390;2023-08-20T12:22:52;10.43;;;6.28;;
59607;SDS011;45426;44.726;10.390;2023-08-20T12:25:17;8.63;;;6.20;;
59607;SDS011;45426;44.726;10.390;2023-08-20T12:27:44;8.68;;;6.05;;
59607;SDS011;45426;44.726;10.390;2023-08-20T12:30:09;15.05;;;6.70;;
59607;SDS011;45426;44.726;10.390;2023-08-20T12:32:35;10.20;;;6.15;;
59607;SDS011;45426;44.726;10.390;2023-08-20T12:35:01;7.70;;;5.75;;
59607;SDS011;45426;44.726;10.390;2023-08-20T12:37:27;8.75;;;6.53;;
59607;SDS011;45426;44.726;10.390;2023-08-20T12:39:53;8.88;;;6.40;;
59607;SDS011;45426;44.726;10.390;2023-08-20T12:42:18;10.77;;;6.30;;
59607;SDS011;45426;44.726;10.390;2023-08-20T12:44:44;8.65;;;5.75;;
59607;SDS011;45426;44.726;10.390;2023-08-20T12:47:09;9.25;;;6.35;;
59607;SDS011;45426;44.726;10.390;2023-08-20T12:49:35;8.70;;;6.00;;
59607;SDS011;45426;44.726;10.390;2023-08-20T12:52:00;8.75;;;6.05;;
59607;SDS011;45426;44.726;10.390;2023-08-20T12:54:25;12.32;;;6.43;;
59607;SDS011;45426;44.726;10.390;2023-08-20T12:56:51;9.95;;;6.32;;
59607;SDS011;45426;44.726;10.390;2023-08-20T12:59:17;10.27;;;6.50;;
59607;SDS011;45426;44.726;10.390;2023-08-20T13:01:42;9.10;;;6.07;;
59607;SDS011;45426;44.726;10.390;2023-08-20T13:04:08;9.13;;;5.78;;
59607;SDS011;45426;44.726;10.390;2023-08-20T13:06:34;9.55;;;5.90;;
59607;SDS011;45426;44.726;10.390;2023-08-20T13:09:00;8.68;;;5.10;;
59607;SDS011;45426;44.726;10.390;2023-08-20T13:11:25;9.45;;;5.63;;
59607;SDS011;45426;44.726;10.390;2023-08-20T13:13:53;7.80;;;5.22;;
59607;SDS011;45426;44.726;10.390;2023-08-20T13:16:18;8.27;;;5.60;;
59607;SDS011;45426;44.726;10.390;2023-08-20T13:18:44;7.80;;;5.65;;
59607;SDS011;45426;44.726;10.390;2023-08-20T13:21:10;8.52;;;5.63;;
59607;SDS011;45426;44.726;10.390;2023-08-20T13:23:36;10.02;;;5.70;;
59607;SDS011;45426;44.726;10.390;2023-08-20T13:26:01;10.73;;;5.63;;
59607;SDS011;45426;44.726;10.390;2023-08-20T13:28:27;8.52;;;5.63;;
59607;SDS011;45426;44.726;10.390;2023-08-20T13:30:52;8.82;;;5.95;;
59607;SDS011;45426;44.726;10.390;2023-08-20T13:33:18;7.72;;;5.43;;
59607;SDS011;45426;44.726;10.390;2023-08-20T13:35:43;10.02;;;5.20;;
59607;SDS011;45426;44.726;10.390;2023-08-20T13:38:09;7.97;;;5.40;;
59607;SDS011;45426;44.726;10.390;2023-08-20T13:40:34;8.90;;;6.13;;
59607;SDS011;45426;44.726;10.390;2023-08-20T13:43:00;9.63;;;6.28;;
59607;SDS011;45426;44.726;10.390;2023-08-20T13:45:25;9.82;;;6.07;;
59607;SDS011;45426;44.726;10.390;2023-08-20T13:47:50;10.55;;;6.07;;
59607;SDS011;45426;44.726;10.390;2023-08-20T13:50:16;10.23;;;6.15;;
59607;SDS011;45426;44.726;10.390;2023-08-20T13:52:41;7.78;;;5.82;;
59607;SDS011;45426;44.726;10.390;2023-08-20T13:55:07;9.82;;;5.93;;
59607;SDS011;45426;44.726;10.390;2023-08-20T13:57:33;9.60;;;5.80;;
59607;SDS011;45426;44.726;10.390;2023-08-20T13:59:58;10.95;;;6.10;;
59607;SDS011;45426;44.726;10.390;2023-08-20T14:02:24;9.23;;;6.22;;
59607;SDS011;45426;44.726;10.390;2023-08-20T14:04:49;10.35;;;6.40;;
59607;SDS011;45426;44.726;10.390;2023-08-20T14:07:15;9.93;;;6.43;;
59607;SDS011;45426;44.726;10.390;2023-08-20T14:09:40;10.30;;;6.30;;
59607;SDS011;45426;44.726;10.390;2023-08-20T14:12:06;8.80;;;5.95;;
59607;SDS011;45426;44.726;10.390;2023-08-20T14:14:32;10.50;;;6.30;;
59607;SDS011;45426;44.726;10.390;2023-08-20T14:16:57;10.52;;;6.18;;
59607;SDS011;45426;44.726;10.390;2023-08-20T14:19:23;9.27;;;6.00;;
59607;SDS011;45426;44.726;10.390;2023-08-20T14:21:48;8.13;;;5.57;;
59607;SDS011;45426;44.726;10.390;2023-08-20T14:24:13;9.73;;;5.93;;
59607;SDS011;45426;44.726;10.390;2023-08-20T14:26:39;9.52;;;5.88;;
59607;SDS011;45426;44.726;10.390;2023-08-20T14:29:04;8.52;;;5.70;;
59607;SDS011;45426;44.726;10.390;2023-08-20T14:31:30;11.98;;;6.38;;
59607;SDS011;45426;44.726;10.390;2023-08-20T14:33:56;10.82;;;6.10;;
59607;SDS011;45426;44.726;10.390;2023-08-20T14:36:21;9.13;;;6.22;;
59607;SDS011;45426;44.726;10.390;2023-08-20T14:38:47;9.70;;;5.80;;
59607;SDS011;45426;44.726;10.390;2023-08-20T14:41:12;9.07;;;5.57;;